createdAt,value
2018-10-16T00:01:54.775Z,9.57
2018-10-16T00:04:25.132Z,9.57
2018-10-16T00:06:54.751Z,9.03
2018-10-16T00:09:24.919Z,10.17
2018-10-16T00:12:02.191Z,9.33
2018-10-16T00:14:31.750Z,9.37
2018-10-16T00:17:02.581Z,9.37
2018-10-16T00:19:32.961Z,10.03
2018-10-16T00:22:03.068Z,10.17
2018-10-16T00:24:32.418Z,9.90
2018-10-16T00:27:02.243Z,10.10
2018-10-16T00:29:32.635Z,9.57
2018-10-16T00:32:02.777Z,9.67
2018-10-16T00:34:32.167Z,9.20
2018-10-16T00:37:01.632Z,9.93
2018-10-16T00:39:31.721Z,9.70
2018-10-16T00:42:00.971Z,10.10
2018-10-16T00:44:30.374Z,9.57
2018-10-16T00:47:00.001Z,10.43
2018-10-16T00:49:29.460Z,10.43
2018-10-16T00:51:58.921Z,9.33
2018-10-16T00:54:28.214Z,10.00
2018-10-16T00:56:57.540Z,9.60
2018-10-16T00:59:26.899Z,9.43
2018-10-16T01:01:56.472Z,9.97
2018-10-16T01:04:25.776Z,9.67
2018-10-16T01:06:55.168Z,9.70
2018-10-16T01:09:24.581Z,9.67
2018-10-16T01:11:56.558Z,9.83
2018-10-16T01:14:27.031Z,9.37
2018-10-16T01:16:56.442Z,9.97
2018-10-16T01:19:26.920Z,9.93
2018-10-16T01:21:56.322Z,9.37
2018-10-16T01:24:26.497Z,10.23
2018-10-16T01:26:57.153Z,10.00
2018-10-16T01:29:28.419Z,9.77
2018-10-16T01:31:57.821Z,10.27
2018-10-16T01:34:27.851Z,10.40
2018-10-16T01:36:57.289Z,9.83
2018-10-16T01:39:26.816Z,9.90
2018-10-16T01:41:57.456Z,10.30
2018-10-16T01:44:26.856Z,9.70
2018-10-16T01:46:57.100Z,10.47
2018-10-16T01:49:26.475Z,10.00
2018-10-16T01:51:56.731Z,10.00
2018-10-16T01:54:26.343Z,9.97
2018-10-16T01:56:55.945Z,10.33
2018-10-16T01:59:25.234Z,9.90
2018-10-16T02:01:55.561Z,11.40
2018-10-16T02:04:24.885Z,10.80
2018-10-16T02:06:54.302Z,10.63
2018-10-16T02:09:23.706Z,10.27
2018-10-16T02:11:53.131Z,10.17
2018-10-16T02:14:22.461Z,10.23
2018-10-16T02:16:51.969Z,10.20
2018-10-16T02:19:21.534Z,9.50
2018-10-16T02:21:50.882Z,9.90
2018-10-16T02:24:20.827Z,9.63
2018-10-16T02:26:50.380Z,10.47
2018-10-16T02:29:19.931Z,9.87
2018-10-16T02:31:49.353Z,10.43
2018-10-16T02:34:18.584Z,9.33
2018-10-16T02:36:48.588Z,10.23
2018-10-16T02:39:17.895Z,10.60
2018-10-16T02:41:47.232Z,11.30
2018-10-16T02:44:16.493Z,10.63
2018-10-16T02:46:46.039Z,10.37
2018-10-16T02:49:15.510Z,10.43
2018-10-16T02:51:45.045Z,10.53
2018-10-16T02:54:14.466Z,10.73
2018-10-16T02:56:44.980Z,10.20
2018-10-16T02:59:14.560Z,10.57
2018-10-16T03:01:43.955Z,10.10
2018-10-16T03:04:13.415Z,10.30
2018-10-16T03:06:42.818Z,10.60
2018-10-16T03:09:12.127Z,10.47
2018-10-16T03:11:41.623Z,11.53
2018-10-16T03:14:10.966Z,10.37
2018-10-16T03:16:57.436Z,10.10
2018-10-16T03:19:31.033Z,10.43
2018-10-16T03:22:01.331Z,10.40
2018-10-16T03:24:30.611Z,10.83
2018-10-16T03:26:59.948Z,10.73
2018-10-16T03:29:32.178Z,10.93
2018-10-16T03:32:02.041Z,10.80
2018-10-16T03:34:31.486Z,10.77
2018-10-16T03:37:03.159Z,11.27
2018-10-16T03:39:32.656Z,11.43
2018-10-16T03:42:02.354Z,11.43
2018-10-16T03:44:32.375Z,11.40
2018-10-16T03:47:02.719Z,11.83
2018-10-16T03:49:32.200Z,11.50
2018-10-16T03:52:01.500Z,10.77
2018-10-16T03:54:30.793Z,11.20
2018-10-16T03:57:00.108Z,11.53
2018-10-16T03:59:29.456Z,10.90
2018-10-16T04:01:58.906Z,11.30
2018-10-16T04:04:28.304Z,10.57
2018-10-16T04:06:57.660Z,11.13
2018-10-16T04:09:26.960Z,10.93
2018-10-16T04:11:56.319Z,11.60
2018-10-16T04:14:25.655Z,11.37
2018-10-16T04:16:55.975Z,10.50
2018-10-16T04:19:25.611Z,11.43
2018-10-16T04:21:55.366Z,13.23
2018-10-16T04:24:25.788Z,11.70
2018-10-16T04:26:56.004Z,10.87
2018-10-16T04:29:26.632Z,12.03
2018-10-16T04:32:00.237Z,11.67
2018-10-16T04:34:31.497Z,10.80
2018-10-16T04:37:03.444Z,11.50
2018-10-16T04:39:32.867Z,10.83
2018-10-16T04:42:02.320Z,11.17
2018-10-16T04:44:31.851Z,11.17
2018-10-16T04:47:01.458Z,11.50
2018-10-16T04:49:30.788Z,12.33
2018-10-16T04:52:00.492Z,11.10
2018-10-16T04:54:30.190Z,11.33
2018-10-16T04:56:59.585Z,11.67
2018-10-16T04:59:28.985Z,11.73
2018-10-16T05:01:58.383Z,19.73
2018-10-16T05:04:27.908Z,11.13
2018-10-16T05:06:57.358Z,11.23
2018-10-16T05:09:26.736Z,11.60
2018-10-16T05:11:56.287Z,11.17
2018-10-16T05:14:26.172Z,11.93
2018-10-16T05:16:55.672Z,10.93
2018-10-16T05:19:25.069Z,12.07
2018-10-16T05:21:54.620Z,10.83
2018-10-16T05:24:23.991Z,12.00
2018-10-16T05:26:54.545Z,11.63
2018-10-16T05:29:24.024Z,11.00
2018-10-16T05:31:53.457Z,12.03
2018-10-16T05:34:22.805Z,11.20
2018-10-16T05:36:54.942Z,11.20
2018-10-16T05:39:24.374Z,12.10
2018-10-16T05:41:54.079Z,11.47
2018-10-16T05:44:23.505Z,12.43
2018-10-16T05:46:52.857Z,11.67
2018-10-16T05:49:22.183Z,11.40
2018-10-16T05:51:51.658Z,11.40
2018-10-16T05:54:21.133Z,11.63
2018-10-16T05:56:50.814Z,11.47
2018-10-16T05:59:20.446Z,11.50
2018-10-16T06:01:50.028Z,12.20
2018-10-16T06:04:19.685Z,11.33
2018-10-16T06:06:49.270Z,11.63
2018-10-16T06:09:18.832Z,11.47
2018-10-16T06:11:48.184Z,11.20
2018-10-16T06:14:18.353Z,11.73
2018-10-16T06:16:49.139Z,12.33
2018-10-16T06:19:18.848Z,11.77
2018-10-16T06:21:48.420Z,12.07
2018-10-16T06:24:19.701Z,12.07
2018-10-16T06:26:49.178Z,11.77
2018-10-16T06:29:18.964Z,12.33
2018-10-16T06:31:48.785Z,12.97
2018-10-16T06:34:18.798Z,12.70
2018-10-16T06:36:48.474Z,12.40
2018-10-16T06:39:18.541Z,13.17
2018-10-16T06:41:48.363Z,12.33
2018-10-16T06:44:18.029Z,12.60
2018-10-16T06:46:47.507Z,12.77
2018-10-16T06:49:17.094Z,12.13
2018-10-16T06:51:46.567Z,13.60
2018-10-16T06:54:16.183Z,12.40
2018-10-16T06:56:45.835Z,13.47
2018-10-16T06:59:15.160Z,12.30
2018-10-16T07:01:45.650Z,12.80
2018-10-16T07:04:15.703Z,13.33
2018-10-16T07:06:45.183Z,12.80
2018-10-16T07:09:15.584Z,12.57
2018-10-16T07:11:45.450Z,12.90
2018-10-16T07:14:15.395Z,12.30
2018-10-16T07:16:44.896Z,13.10
2018-10-16T07:19:14.551Z,12.67
2018-10-16T07:21:44.235Z,12.80
2018-10-16T07:24:13.801Z,13.57
2018-10-16T07:26:43.369Z,13.73
2018-10-16T07:29:12.924Z,13.50
2018-10-16T07:31:42.248Z,12.97
2018-10-16T07:34:11.760Z,13.10
2018-10-16T07:36:41.231Z,12.63
2018-10-16T07:39:13.091Z,13.27
2018-10-16T07:41:43.076Z,12.90
2018-10-16T07:44:13.556Z,13.73
2018-10-16T07:46:43.033Z,13.63
2018-10-16T07:49:12.710Z,13.17
2018-10-16T07:51:42.167Z,13.17
2018-10-16T07:54:12.497Z,12.97
2018-10-16T07:56:42.151Z,12.43
2018-10-16T07:59:11.688Z,12.73
2018-10-16T08:01:41.310Z,12.73
2018-10-16T08:04:10.822Z,13.00
2018-10-16T08:06:40.545Z,11.37
2018-10-16T08:09:13.521Z,12.37
2018-10-16T08:11:49.363Z,11.97
2018-10-16T08:14:19.877Z,12.43
2018-10-16T08:16:50.745Z,12.23
2018-10-16T08:19:20.071Z,12.90
2018-10-16T08:21:49.519Z,12.27
2018-10-16T08:24:18.883Z,12.47
2018-10-16T08:26:48.343Z,11.80
2018-10-16T08:29:17.796Z,11.57
2018-10-16T08:31:47.251Z,12.00
2018-10-16T08:34:17.067Z,11.77
2018-10-16T08:36:52.977Z,11.80
2018-10-16T08:39:27.409Z,12.27
2018-10-16T08:43:20.133Z,11.87
2018-10-16T08:46:00.823Z,11.60
2018-10-16T08:48:41.827Z,12.20
2018-10-16T08:51:22.340Z,11.90
2018-10-16T08:53:52.018Z,10.93
2018-10-16T08:56:21.625Z,11.07
2018-10-16T08:58:51.131Z,12.83
2018-10-16T09:01:20.845Z,16.03
2018-10-16T09:03:50.496Z,12.27
2018-10-16T09:06:19.894Z,13.73
2018-10-16T09:08:49.196Z,10.80
2018-10-16T09:11:19.394Z,10.87
2018-10-16T09:13:49.873Z,10.40
2018-10-16T09:16:19.757Z,10.97
2018-10-16T09:18:49.248Z,14.07
2018-10-16T09:21:18.780Z,10.80
2018-10-16T09:23:48.352Z,11.60
2018-10-16T09:26:18.088Z,11.00
2018-10-16T09:28:48.000Z,10.53
2018-10-16T09:31:18.436Z,10.83
2018-10-16T09:33:49.333Z,13.23
2018-10-16T09:36:19.677Z,12.97
2018-10-16T09:38:49.111Z,14.00
2018-10-16T09:41:19.388Z,13.60
2018-10-16T09:43:48.898Z,13.47
2018-10-16T09:46:18.769Z,11.57
2018-10-16T09:48:48.270Z,11.63
2018-10-16T09:51:17.910Z,12.77
2018-10-16T09:53:48.284Z,11.97
2018-10-16T09:56:18.070Z,13.93
2018-10-16T09:58:49.048Z,12.70
2018-10-16T10:01:24.714Z,12.70
2018-10-16T10:03:54.213Z,12.47
2018-10-16T10:06:23.597Z,13.00
2018-10-16T10:08:53.015Z,13.50
2018-10-16T10:11:22.546Z,12.90
2018-10-16T10:13:52.000Z,15.47
2018-10-16T10:16:22.573Z,12.97
2018-10-16T10:18:52.063Z,13.67
2018-10-16T10:21:21.584Z,13.17
2018-10-16T10:23:50.927Z,12.43
2018-10-16T10:26:21.494Z,15.27
2018-10-16T10:28:51.121Z,14.47
2018-10-16T10:31:22.645Z,14.20
2018-10-16T10:33:52.041Z,14.10
2018-10-16T10:36:21.521Z,15.73
2018-10-16T10:38:51.162Z,14.30
2018-10-16T10:41:21.189Z,14.07
2018-10-16T10:43:51.017Z,15.43
2018-10-16T10:46:20.558Z,14.73
2018-10-16T10:48:50.206Z,15.93
2018-10-16T10:51:20.223Z,14.00
2018-10-16T10:53:49.378Z,14.80
2018-10-16T10:56:19.032Z,13.70
2018-10-16T10:58:48.434Z,14.10
2018-10-16T11:01:17.896Z,17.13
2018-10-16T11:03:47.325Z,16.33
2018-10-16T11:06:16.711Z,17.33
2018-10-16T11:08:45.983Z,17.93
2018-10-16T11:11:15.646Z,17.47
2018-10-16T11:13:45.224Z,17.03
2018-10-16T11:16:14.799Z,15.00
2018-10-16T11:18:44.233Z,16.27
2018-10-16T11:21:13.643Z,14.83
2018-10-16T11:23:43.021Z,14.80
2018-10-16T11:26:12.508Z,14.37
2018-10-16T11:28:41.837Z,15.80
2018-10-16T11:31:11.110Z,15.30
2018-10-16T11:33:40.440Z,16.93
2018-10-16T11:36:09.889Z,14.30
2018-10-16T11:38:39.265Z,14.40
2018-10-16T11:41:08.693Z,13.47
2018-10-16T11:43:38.159Z,14.50
2018-10-16T11:46:07.524Z,13.90
2018-10-16T11:48:36.895Z,14.20
2018-10-16T11:51:06.287Z,14.07
2018-10-16T11:53:35.760Z,11.90
2018-10-16T11:56:05.727Z,11.73
2018-10-16T11:58:35.886Z,12.17
2018-10-16T12:01:05.426Z,11.30
2018-10-16T12:03:35.532Z,11.48
2018-10-16T12:06:05.106Z,12.53
2018-10-16T12:08:34.599Z,14.87
2018-10-16T12:11:06.576Z,14.13
2018-10-16T12:13:36.028Z,13.40
2018-10-16T12:16:05.595Z,15.10
2018-10-16T12:18:44.173Z,15.28
2018-10-16T12:21:17.416Z,16.77
2018-10-16T12:23:48.548Z,15.78
2018-10-16T12:26:19.024Z,16.23
2018-10-16T12:28:48.847Z,16.27
2018-10-16T12:31:18.261Z,16.30
2018-10-16T12:33:47.758Z,16.00
2018-10-16T12:36:17.249Z,14.60
2018-10-16T12:38:47.594Z,14.98
2018-10-16T12:41:16.993Z,15.88
2018-10-16T12:43:46.837Z,15.15
2018-10-16T12:46:16.404Z,15.75
2018-10-16T12:48:45.774Z,11.08
2018-10-16T12:51:15.421Z,10.03
2018-10-16T12:53:44.904Z,9.70
2018-10-16T12:56:14.564Z,7.80
2018-10-16T12:58:44.000Z,7.80
2018-10-16T13:01:13.456Z,7.50
2018-10-16T13:03:43.008Z,7.80
2018-10-16T13:06:12.526Z,6.65
2018-10-16T13:08:41.792Z,7.08
2018-10-16T13:11:11.399Z,6.78
2018-10-16T13:13:41.276Z,6.40
2018-10-16T13:16:10.679Z,7.95
2018-10-16T13:18:40.258Z,6.78
2018-10-16T13:21:09.657Z,7.35
2018-10-16T13:23:39.093Z,6.97
2018-10-16T13:26:09.344Z,7.40
2018-10-16T13:28:38.788Z,6.08
2018-10-16T13:31:08.082Z,6.55
2018-10-16T13:33:38.494Z,6.17
2018-10-16T13:36:08.264Z,5.78
2018-10-16T13:38:37.866Z,7.05
2018-10-16T13:41:07.346Z,5.80
2018-10-16T13:43:37.479Z,6.60
2018-10-16T13:46:07.723Z,5.92
2018-10-16T13:48:37.959Z,5.72
2018-10-16T13:51:07.574Z,5.55
2018-10-16T13:53:37.218Z,5.90
2018-10-16T13:56:07.318Z,6.28
2018-10-16T13:58:37.174Z,6.25
2018-10-16T14:01:06.722Z,5.53
2018-10-16T14:03:36.698Z,6.10
2018-10-16T14:06:06.921Z,6.40
2018-10-16T14:08:36.529Z,5.78
2018-10-16T14:11:06.398Z,5.67
2018-10-16T14:13:35.848Z,5.33
2018-10-16T14:16:05.690Z,6.10
2018-10-16T14:18:35.903Z,6.40
2018-10-16T14:21:05.808Z,5.25
2018-10-16T14:23:36.097Z,5.58
2018-10-16T14:26:05.706Z,5.70
2018-10-16T14:28:36.145Z,7.70
2018-10-16T14:31:05.660Z,7.00
2018-10-16T14:33:35.109Z,7.50
2018-10-16T14:36:04.495Z,8.23
2018-10-16T14:38:34.257Z,7.15
2018-10-16T14:41:04.378Z,6.28
2018-10-16T14:43:33.798Z,5.62
2018-10-16T14:46:03.915Z,5.92
2018-10-16T14:48:33.189Z,5.65
2018-10-16T14:51:03.265Z,6.28
2018-10-16T14:53:33.690Z,5.42
2018-10-16T14:56:03.166Z,5.53
2018-10-16T14:58:32.482Z,5.65
2018-10-16T15:01:02.252Z,5.87
2018-10-16T15:03:31.924Z,6.00
2018-10-16T15:06:01.260Z,5.47
2018-10-16T15:08:30.651Z,6.20
2018-10-16T15:11:00.050Z,6.65
2018-10-16T15:13:29.747Z,6.50
2018-10-16T15:15:59.085Z,6.60
2018-10-16T15:18:28.699Z,6.97
2018-10-16T15:20:58.290Z,6.78
2018-10-16T15:23:27.851Z,6.53
2018-10-16T15:25:57.661Z,7.03
2018-10-16T15:28:27.406Z,6.60
2018-10-16T15:30:56.732Z,7.08
2018-10-16T15:33:26.120Z,6.58
2018-10-16T15:35:55.721Z,6.92
2018-10-16T15:38:25.231Z,8.10
2018-10-16T15:40:54.889Z,7.97
2018-10-16T15:43:24.419Z,7.85
2018-10-16T15:45:53.803Z,8.00
2018-10-16T15:48:23.280Z,8.60
2018-10-16T15:50:53.747Z,8.87
2018-10-16T15:53:23.101Z,9.23
2018-10-16T15:55:52.800Z,9.50
2018-10-16T15:58:23.220Z,11.47
2018-10-16T16:00:54.496Z,9.83
2018-10-16T16:03:24.387Z,11.50
2018-10-16T16:05:54.735Z,9.10
2018-10-16T16:08:24.623Z,8.63
2018-10-16T16:10:54.029Z,9.80
2018-10-16T16:13:23.513Z,9.07
2018-10-16T16:15:53.067Z,9.23
2018-10-16T16:18:22.776Z,11.13
2018-10-16T16:20:52.439Z,10.33
2018-10-16T16:23:21.867Z,10.33
2018-10-16T16:25:52.094Z,11.20
2018-10-16T16:28:21.783Z,12.30
2018-10-16T16:30:51.312Z,14.33
2018-10-16T16:33:20.758Z,19.20
2018-10-16T16:35:50.322Z,14.20
2018-10-16T16:38:19.838Z,13.97
2018-10-16T16:40:49.600Z,13.33
2018-10-16T16:43:19.317Z,14.53
2018-10-16T16:45:49.025Z,13.70
2018-10-16T16:48:18.534Z,12.83
2018-10-16T16:50:47.919Z,12.73
2018-10-16T16:53:17.373Z,14.03
2018-10-16T16:55:46.860Z,13.37
2018-10-16T16:58:16.249Z,16.70
2018-10-16T17:00:45.760Z,17.17
2018-10-16T17:03:16.372Z,21.23
2018-10-16T17:05:45.784Z,16.70
2018-10-16T17:08:15.254Z,16.00
2018-10-16T17:10:44.908Z,16.43
2018-10-16T17:13:15.640Z,15.00
2018-10-16T17:15:45.131Z,15.70
2018-10-16T17:18:15.614Z,16.50
2018-10-16T17:20:45.349Z,15.90
2018-10-16T17:23:14.720Z,16.27
2018-10-16T17:25:44.406Z,16.70
2018-10-16T17:28:13.721Z,16.47
2018-10-16T17:30:43.036Z,16.87
2018-10-16T17:33:12.748Z,17.50
2018-10-16T17:35:42.208Z,18.10
2018-10-16T17:38:11.747Z,19.23
2018-10-16T17:40:41.369Z,19.53
2018-10-16T17:43:10.894Z,17.87
2018-10-16T17:45:40.355Z,17.30
2018-10-16T17:48:10.015Z,17.67
2018-10-16T17:50:39.745Z,17.07
2018-10-16T17:53:09.317Z,16.57
2018-10-16T17:55:38.975Z,17.80
2018-10-16T17:58:08.639Z,17.30
2018-10-16T18:00:37.998Z,19.23
2018-10-16T18:03:07.798Z,18.00
2018-10-16T18:05:37.507Z,16.33
2018-10-16T18:08:07.218Z,14.93
2018-10-16T18:10:36.848Z,15.43
2018-10-16T18:13:07.643Z,15.93
2018-10-16T18:15:37.173Z,15.23
2018-10-16T18:18:07.215Z,18.37
2018-10-16T18:20:37.029Z,17.73
2018-10-16T18:23:06.705Z,17.23
2018-10-16T18:25:36.459Z,17.27
2018-10-16T18:28:05.975Z,16.70
2018-10-16T18:30:35.412Z,23.70
2018-10-16T18:33:04.811Z,18.53
2018-10-16T18:35:34.240Z,17.50
2018-10-16T18:38:03.868Z,15.57
2018-10-16T18:40:33.214Z,15.43
2018-10-16T18:43:02.786Z,14.83
2018-10-16T18:45:33.218Z,16.23
2018-10-16T18:48:03.472Z,18.03
2018-10-16T18:50:33.754Z,15.67
2018-10-16T18:53:03.429Z,16.37
2018-10-16T18:55:33.157Z,25.50
2018-10-16T18:58:03.567Z,22.53
2018-10-16T19:00:33.658Z,23.30
2018-10-16T19:03:04.424Z,22.60
2018-10-16T19:05:34.352Z,19.73
2018-10-16T19:08:05.305Z,17.83
2018-10-16T19:10:36.433Z,17.90
2018-10-16T19:13:06.712Z,15.83
2018-10-16T19:15:36.426Z,14.40
2018-10-16T19:18:07.067Z,16.23
2018-10-16T19:20:36.728Z,16.47
2018-10-16T19:23:08.839Z,12.30
2018-10-16T19:25:39.022Z,11.43
2018-10-16T19:28:09.837Z,12.50
2018-10-16T19:30:41.143Z,10.50
2018-10-16T19:33:11.198Z,9.77
2018-10-16T19:35:40.771Z,10.90
2018-10-16T19:38:10.258Z,11.47
2018-10-16T19:40:39.925Z,10.43
2018-10-16T19:43:10.026Z,10.70
2018-10-16T19:45:39.630Z,10.97
2018-10-16T19:48:09.176Z,11.33
2018-10-16T19:50:38.548Z,11.40
2018-10-16T19:53:08.275Z,11.63
2018-10-16T19:55:37.611Z,11.37
2018-10-16T19:58:07.022Z,11.43
2018-10-16T20:00:36.466Z,12.23
2018-10-16T20:03:06.114Z,11.93
2018-10-16T20:05:35.588Z,11.67
2018-10-16T20:08:05.651Z,11.17
2018-10-16T20:10:35.007Z,11.10
2018-10-16T20:13:04.440Z,11.60
2018-10-16T20:15:34.647Z,11.60
2018-10-16T20:18:04.157Z,11.90
2018-10-16T20:20:33.569Z,11.23
2018-10-16T20:23:03.430Z,12.00
2018-10-16T20:25:32.834Z,11.00
2018-10-16T20:28:02.327Z,12.20
2018-10-16T20:30:31.760Z,10.87
2018-10-16T20:33:01.149Z,12.17
2018-10-16T20:35:30.401Z,11.13
2018-10-16T20:38:00.077Z,11.10
2018-10-16T20:40:30.169Z,12.00
2018-10-16T20:43:00.336Z,12.87
2018-10-16T20:45:30.129Z,11.57
2018-10-16T20:47:59.498Z,11.70
2018-10-16T20:50:29.814Z,11.37
2018-10-16T20:52:59.324Z,11.30
2018-10-16T20:55:32.597Z,11.73
2018-10-16T20:58:03.043Z,11.37
2018-10-16T21:00:32.780Z,11.53
2018-10-16T21:03:02.240Z,12.20
2018-10-16T21:05:31.682Z,10.80
2018-10-16T21:08:01.191Z,11.73
2018-10-16T21:10:30.661Z,11.37
2018-10-16T21:13:00.056Z,12.03
2018-10-16T21:15:29.459Z,11.70
2018-10-16T21:17:58.746Z,11.43
2018-10-16T21:20:28.011Z,11.93
2018-10-16T21:23:01.690Z,11.40
2018-10-16T21:25:31.034Z,11.20
2018-10-16T21:28:01.622Z,10.93
2018-10-16T21:30:31.033Z,11.70
2018-10-16T21:33:00.665Z,12.47
2018-10-16T21:35:30.660Z,11.57
2018-10-16T21:37:59.991Z,12.03
2018-10-16T21:40:29.523Z,10.80
2018-10-16T21:42:58.840Z,11.00
2018-10-16T21:45:28.303Z,13.00
2018-10-16T21:47:57.663Z,12.47
2018-10-16T21:50:27.055Z,11.87
2018-10-16T21:52:57.375Z,11.80
2018-10-16T21:55:28.899Z,12.50
2018-10-16T21:57:58.661Z,11.40
2018-10-16T22:00:33.434Z,11.80
2018-10-16T22:03:02.912Z,11.47
2018-10-16T22:05:32.444Z,10.70
2018-10-16T22:08:01.774Z,11.60
2018-10-16T22:10:31.154Z,13.00
2018-10-16T22:13:00.560Z,11.57
2018-10-16T22:15:29.962Z,12.33
2018-10-16T22:17:59.273Z,11.70
2018-10-16T22:20:28.748Z,11.20
2018-10-16T22:22:58.331Z,11.33
2018-10-16T22:25:27.787Z,12.07
2018-10-16T22:27:57.117Z,12.80
2018-10-16T22:30:26.447Z,11.83
2018-10-16T22:32:57.626Z,12.10
2018-10-16T22:35:27.065Z,11.77
2018-10-16T22:37:56.583Z,12.23
2018-10-16T22:40:26.095Z,11.93
2018-10-16T22:42:55.477Z,11.90
2018-10-16T22:45:24.768Z,12.27
2018-10-16T22:47:54.104Z,11.93
2018-10-16T22:50:23.563Z,11.97
2018-10-16T22:52:52.892Z,12.03
2018-10-16T22:55:22.345Z,11.67
2018-10-16T22:57:51.796Z,11.87
2018-10-16T23:00:21.579Z,11.77
2018-10-16T23:02:50.858Z,11.80
2018-10-16T23:05:20.522Z,11.47
2018-10-16T23:07:50.045Z,12.43
2018-10-16T23:10:19.703Z,12.43
2018-10-16T23:12:54.343Z,11.90
2018-10-16T23:15:23.686Z,12.13
2018-10-16T23:17:53.203Z,11.17
2018-10-16T23:20:22.848Z,11.40
2018-10-16T23:22:52.494Z,12.83
2018-10-16T23:25:23.043Z,11.80
2018-10-16T23:27:52.461Z,11.47
2018-10-16T23:30:21.944Z,10.93
2018-10-16T23:32:51.382Z,11.17
2018-10-16T23:35:20.750Z,11.13
2018-10-16T23:37:49.987Z,10.80
2018-10-16T23:40:19.905Z,10.87
2018-10-16T23:42:49.396Z,10.97
2018-10-16T23:45:18.776Z,11.03
2018-10-16T23:47:48.235Z,10.87
2018-10-16T23:50:17.530Z,11.23
2018-10-16T23:52:47.080Z,11.47
2018-10-16T23:55:16.658Z,11.60
2018-10-16T23:57:45.971Z,12.07
